Have a Safe July 4th! 

Flight Track Log - Related Links

Times and Time Zones

All times are in EDT time to prevent confusion due to time zone crossing. See the GJS3710 flight status page for this flight to view local times or setup timezone preferences in your user account.

Time Position Orientation Groundspeed Altitude Reporting Facility
EDT Latitude Longitude Course Direction KTS MPH feet Rate Location/Type
Tue 02:51:28 PM 39.8833 -104.6000 108° East 164 189 7,100  Level Denver TRACON
Tue 02:52:28 PM 39.8500 -104.5333 123° Southeast 220 253 9,000 1,663 Climbing Denver TRACON
Tue 02:53:09 PM 39.8375 -104.4711 105° East 240 276 9,900 1,573 Climbing Denver Center
Tue 02:54:00 PM 39.7700 -104.0713 101° East  Level FlightAware Approximate
Tue 02:54:11 PM 39.8094 -104.3686 110° East 298 343 11,700  Level Denver Center
Tue 02:55:00 PM 39.7649 -103.9207 100° East  Level FlightAware Approximate
Tue 02:55:12 PM 39.7981 -104.2328 96° East 349 402 13,200  Level Denver Center
Tue 02:56:00 PM 39.7392 -103.7735 108° East  Level FlightAware Approximate
Tue 02:56:14 PM 39.7828 -104.0967 98° East 383 441 15,300  Level Denver Center
Tue 02:57:16 PM 39.7658 -103.9456 98° East 397 457 17,700 1,756 Climbing Denver Center
Tue 02:58:17 PM 39.7533 -103.8364 98° East 399 459 18,900 1,317 Climbing Denver Center
Tue 02:59:19 PM 39.7356 -103.6758 98° East 412 474 20,400 1,500 Climbing Denver Center
Tue 03:00:21 PM 39.7217 -103.4944 96° East 445 512 22,000 1,512 Climbing Denver Center
Tue 03:01:22 PM 39.7075 -103.3203 96° East 461 531 23,500 1,463 Climbing Denver Center
Tue 03:02:24 PM 39.6925 -103.1300 96° East 474 545 25,000 1,403 Climbing Denver Center
Tue 03:03:26 PM 39.6847 -102.9656 93° East 476 548 26,400 1,463 Climbing Denver Center
Tue 03:04:27 PM 39.6794 -102.7725 92° East 481 554 28,000 1,415 Climbing Denver Center
Tue 03:05:29 PM 39.6744 -102.6056 92° East 483 556 29,300 1,113 Climbing Denver Center
Tue 03:06:31 PM 39.6686 -102.4397 93° East 483 556 30,300 976 Climbing Denver Center
Tue 03:07:32 PM 39.6617 -102.2428 93° East 488 562 31,300 927 Climbing Denver Center
Tue 03:08:34 PM 39.6561 -102.0731 92° East 493 567 32,200 780 Climbing Denver Center
Tue 03:09:35 PM 39.6511 -101.9300 93° East 496 571 32,900 927 Climbing Denver Center
Tue 03:10:37 PM 39.6411 -101.7000 93° East 501 577 34,100 1,065 Climbing Denver Center
Tue 03:11:39 PM 39.6342 -101.5008 93° East 498 573 35,100 919 Climbing Denver Center
Tue 03:12:41 PM 39.6267 -101.3308 93° East 496 571 36,000 927 Climbing Denver Center
Tue 03:13:42 PM 39.6192 -101.1344 93° East 491 565 37,000 878 Climbing Denver Center
Tue 03:14:44 PM 39.6106 -100.9692 94° East 485 558 37,800 823 Climbing Denver Center
Tue 03:15:46 PM 39.6039 -100.8061 93° East 479 551 38,700 585 Climbing Denver Center
Tue 03:16:47 PM 39.5944 -100.6194 94° East 470 541 39,000 146 Climbing Denver Center
Tue 03:17:49 PM 39.5861 -100.4550 94° East 475 547 39,000  Level Denver Center
Tue 03:18:51 PM 39.5767 -100.2633 94° East 478 550 39,000  Level Denver Center
Tue 03:19:52 PM 39.5683 -100.0986 94° East 481 554 39,000  Level Denver Center
Tue 03:20:54 PM 39.5575 -99.9106 94° East 483 556 39,000  Level Denver Center
Tue 03:22:08 PM 39.5489 -99.7386 94° East 480 552 39,000  Level Denver Center
Tue 03:23:10 PM 39.5372 -99.5356 94° East 472 543 39,000  Level Denver Center
Tue 03:24:11 PM 39.5278 -99.3700 94° East 463 533 39,000  Level Denver Center
Tue 03:25:13 PM 39.5181 -99.2131 95° East 443 510 39,000  Level Denver Center
Tue 03:26:15 PM 39.5053 -99.0228 95° East 443 510 39,000  Level Denver Center
Tue 03:27:16 PM 39.4953 -98.8597 94° East 452 520 39,000 -98 Level Denver Center
Tue 03:28:18 PM 39.4842 -98.6967 95° East 457 526 38,800 -581 Descending Denver Center
Tue 03:29:20 PM 39.4739 -98.5294 94° East 465 535 37,800 -976 Descending Denver Center
Tue 03:30:21 PM 39.4622 -98.3583 95° East 475 547 36,800 -976 Descending Denver Center
Tue 03:31:23 PM 39.4508 -98.1864 95° East 479 551 35,800 -1,000 Descending Denver Center
Tue 03:31:45 PM 39.4453 -98.1133 96° East 477 549 35,400 -571 Descending Kansas City Center
Tue 03:32:47 PM 39.4344 -97.9489 95° East 480 552 35,000 -194 Descending Kansas City Center
Tue 03:33:49 PM 39.4225 -97.7722 95° East 484 557 35,000  Level Kansas City Center
Tue 03:34:51 PM 39.4100 -97.6028 95° East 476 548 35,000  Level Kansas City Center
Tue 03:35:53 PM 39.3925 -97.4061 97° East 469 540 35,000  Level Kansas City Center
Tue 03:36:55 PM 39.3819 -97.2450 95° East 470 541 35,000  Level Kansas City Center
Tue 03:37:57 PM 39.3672 -97.0544 96° East 476 548 35,000  Level Kansas City Center
Tue 03:38:59 PM 39.3542 -96.8914 96° East 477 549 35,000  Level Kansas City Center
Tue 03:40:01 PM 39.3389 -96.7022 96° East 475 547 35,000  Level Kansas City Center
Tue 03:41:03 PM 39.3256 -96.5406 96° East 475 547 35,000  Level Kansas City Center
Tue 03:42:05 PM 39.3106 -96.3789 97° East 477 549 35,000  Level Kansas City Center
Tue 03:43:07 PM 39.2969 -96.2103 96° East 473 544 35,000  Level Kansas City Center
Tue 03:44:09 PM 39.2789 -96.0272 97° East 473 544 35,000  Level Kansas City Center
Tue 03:45:11 PM 39.2625 -95.8383 96° East 473 544 35,000  Level Kansas City Center
Tue 03:46:13 PM 39.2481 -95.6789 97° East 471 542 35,000  Level Kansas City Center
Tue 03:47:15 PM 39.2306 -95.4919 97° East 469 540 35,000  Level Kansas City Center
Tue 03:48:16 PM 39.2136 -95.3119 97° East 472 543 35,000  Level Kansas City Center
Tue 03:49:18 PM 39.1975 -95.1456 97° East 470 541 35,000  Level Kansas City Center
Tue 03:50:20 PM 39.1808 -94.9719 97° East 466 536 35,000  Level Kansas City Center
Tue 03:51:22 PM 39.1653 -94.8136 97° East 466 536 35,000  Level Kansas City Center
Tue 03:52:24 PM 39.1464 -94.6286 97° East 467 537 35,000  Level Kansas City Center
Tue 03:53:27 PM 39.1306 -94.4719 97° East 463 533 35,000  Level Kansas City Center
Tue 03:54:29 PM 39.1117 -94.2883 97° East 462 532 35,000  Level Kansas City Center
Tue 03:55:31 PM 39.0950 -94.1306 98° East 465 535 35,000  Level Kansas City Center
Tue 03:56:33 PM 39.0717 -93.9753 101° East 463 533 35,000 -48 Level Kansas City Center
Tue 03:57:35 PM 39.0372 -93.7969 104° East 459 528 34,900 -823 Descending Kansas City Center
Tue 03:58:37 PM 38.9881 -93.6619 115° Southeast 449 517 33,300 -1,728 Descending Kansas City Center
Tue 03:59:40 PM 38.9256 -93.4892 115° Southeast 445 512 31,300 -1,728 Descending Kansas City Center
Tue 04:00:42 PM 38.8708 -93.3453 116° Southeast 445 512 29,700 -1,548 Descending Kansas City Center
Tue 04:01:44 PM 38.8122 -93.1994 117° Southeast 453 521 28,100 -1,548 Descending Kansas City Center
Tue 04:02:46 PM 38.7953 -93.0364 98° East 462 532 26,500 -1,548 Descending Kansas City Center
Tue 04:03:48 PM 38.7886 -92.8750 93° East 457 526 24,900 -1,210 Descending Kansas City Center
Tue 04:04:50 PM 38.7811 -92.7156 93° East 452 520 24,000 -968 Descending Kansas City Center
Tue 04:05:52 PM 38.7733 -92.5633 94° East 438 504 22,900 -1,306 Descending Kansas City Center
Tue 04:06:54 PM 38.7636 -92.3822 94° East 427 491 21,300 -1,355 Descending Kansas City Center
Tue 04:07:56 PM 38.7550 -92.2314 94° East 422 486 20,100 -1,113 Descending Kansas City Center
Tue 04:08:58 PM 38.7467 -92.0839 94° East 415 478 19,000 -1,065 Descending Kansas City Center
Tue 04:10:00 PM 38.7394 -91.9425 94° East 404 465 17,900 -1,161 Descending Kansas City Center
Tue 04:11:02 PM 38.7311 -91.8064 94° East 387 445 16,600 -1,258 Descending Kansas City Center
Tue 04:12:04 PM 38.7233 -91.6717 94° East 381 438 15,300 -1,258 Descending Kansas City Center
Tue 04:13:06 PM 38.7147 -91.5422 95° East 374 430 14,000 -1,258 Descending Kansas City Center
Tue 04:14:08 PM 38.7072 -91.4181 94° East 363 418 12,700 -1,403 Descending Kansas City Center
Tue 04:15:10 PM 38.6983 -91.2742 94° East 349 402 11,100 -968 Descending Kansas City Center
Tue 04:16:12 PM 38.6942 -91.1653 93° East 327 376 10,700 -581 Descending Kansas City Center
Tue 04:17:14 PM 38.7142 -91.0625 76° East 307 353 9,900 -968 Descending Kansas City Center
Tue 04:18:16 PM 38.7556 -90.9717 60° Northeast 300 345 8,700 -1,403 Descending Kansas City Center
Tue 04:19:18 PM 38.7975 -90.8792 60° Northeast 300 345 7,000 -1,548 Descending Kansas City Center
Tue 04:20:20 PM 38.8358 -90.7961 59° Northeast 286 329 5,500 -1,584 Descending Kansas City Center
Tue 04:21:23 PM 38.8431 -90.6853 85° East 270 311 3,700 -1,210 Descending Kansas City Center
Tue 04:22:24 PM 38.8475 -90.5942 86° East 263 303 3,000 -488 Descending Kansas City Center
Tue 04:23:26 PM 38.8217 -90.5333 119° Southeast 217 250 2,700 -290 Descending Kansas City Center

Login

Don't have an account? Register now (free) for customized features, flight alerts, and more!